createdAt,value
2017-10-23T00:02:05.195Z,2.03
2017-10-23T00:04:32.627Z,2.00
2017-10-23T00:07:00.068Z,2.70
2017-10-23T00:09:27.534Z,2.60
2017-10-23T00:11:54.962Z,3.13
2017-10-23T00:14:23.191Z,2.20
2017-10-23T00:16:50.636Z,2.27
2017-10-23T00:19:18.084Z,1.97
2017-10-23T00:21:45.539Z,2.47
2017-10-23T00:24:13.000Z,1.73
2017-10-23T00:26:40.440Z,2.20
2017-10-23T00:29:07.919Z,2.10
2017-10-23T00:31:35.372Z,2.43
2017-10-23T00:34:02.822Z,2.43
2017-10-23T00:36:30.275Z,1.87
2017-10-23T00:38:57.707Z,2.57
2017-10-23T00:41:25.171Z,3.00
2017-10-23T00:43:52.609Z,2.30
2017-10-23T00:46:20.835Z,1.80
2017-10-23T00:48:48.283Z,1.80
2017-10-23T00:51:15.767Z,2.77
2017-10-23T00:53:43.211Z,1.80
2017-10-23T00:56:10.667Z,2.60
2017-10-23T00:58:38.123Z,2.10
2017-10-23T01:01:05.570Z,2.37
2017-10-23T01:03:33.033Z,3.30
2017-10-23T01:06:00.459Z,2.07
2017-10-23T01:08:27.919Z,2.50
2017-10-23T01:10:55.362Z,2.03
2017-10-23T01:13:22.835Z,2.23
2017-10-23T01:15:50.281Z,1.87
2017-10-23T01:18:18.488Z,2.27
2017-10-23T01:20:45.943Z,1.73
2017-10-23T01:23:13.379Z,2.03
2017-10-23T01:25:40.826Z,2.50
2017-10-23T01:28:08.268Z,2.43
2017-10-23T01:30:36.481Z,1.80
2017-10-23T01:33:03.924Z,2.27
2017-10-23T01:35:31.404Z,1.73
2017-10-23T01:37:58.855Z,2.90
2017-10-23T01:40:26.287Z,2.00
2017-10-23T01:42:54.524Z,1.80
2017-10-23T01:45:21.959Z,1.97
2017-10-23T01:47:49.410Z,2.20
2017-10-23T01:50:16.857Z,2.40
2017-10-23T01:52:44.314Z,2.00
2017-10-23T01:55:11.738Z,1.97
2017-10-23T01:57:39.975Z,2.03
2017-10-23T02:00:07.416Z,1.80
2017-10-23T02:02:34.864Z,3.07
2017-10-23T02:05:02.323Z,1.67
2017-10-23T02:07:29.763Z,2.03
2017-10-23T02:09:57.219Z,2.40
2017-10-23T02:12:24.663Z,1.50
2017-10-23T02:14:52.118Z,1.70
2017-10-23T02:17:20.321Z,1.77
2017-10-23T02:19:47.792Z,2.00
2017-10-23T02:22:15.227Z,3.90
2017-10-23T02:24:42.664Z,2.07
2017-10-23T02:27:10.875Z,2.50
2017-10-23T02:29:38.314Z,3.17
2017-10-23T02:32:05.763Z,1.53
2017-10-23T02:34:33.199Z,2.83
2017-10-23T02:37:01.439Z,2.10
2017-10-23T02:39:28.875Z,2.07
2017-10-23T02:41:56.326Z,1.73
2017-10-23T02:44:23.764Z,2.27
2017-10-23T02:46:51.207Z,1.93
2017-10-23T02:49:19.435Z,2.20
2017-10-23T02:51:46.870Z,2.00
2017-10-23T02:54:14.327Z,1.93
2017-10-23T02:56:41.782Z,1.47
2017-10-23T02:59:09.240Z,1.93
2017-10-23T03:01:36.671Z,1.90
2017-10-23T03:04:04.111Z,2.30
2017-10-23T03:06:32.319Z,1.90
2017-10-23T03:08:59.760Z,1.93
2017-10-23T03:11:27.975Z,1.60
2017-10-23T03:13:55.421Z,2.07
2017-10-23T03:16:22.880Z,1.53
2017-10-23T03:18:50.319Z,2.03
2017-10-23T03:21:17.756Z,2.07
2017-10-23T03:23:45.974Z,1.60
2017-10-23T03:26:13.425Z,1.90
2017-10-23T03:28:40.877Z,2.33
2017-10-23T03:31:08.312Z,2.40
2017-10-23T03:33:35.771Z,2.20
2017-10-23T03:36:03.211Z,1.80
2017-10-23T03:38:31.451Z,1.90
2017-10-23T03:40:58.894Z,2.37
2017-10-23T03:43:26.344Z,1.70
2017-10-23T03:45:53.799Z,1.20
2017-10-23T03:48:21.245Z,2.10
2017-10-23T03:50:48.687Z,1.80
2017-10-23T03:53:16.126Z,1.97
2017-10-23T03:55:44.344Z,1.73
2017-10-23T03:58:11.790Z,2.27
2017-10-23T04:00:39.271Z,1.80
2017-10-23T04:03:06.703Z,2.00
2017-10-23T04:05:34.138Z,2.10
2017-10-23T04:08:01.591Z,2.20
2017-10-23T04:10:29.808Z,1.50
2017-10-23T04:12:57.267Z,2.00
2017-10-23T04:15:24.695Z,2.13
2017-10-23T04:17:52.179Z,2.37
2017-10-23T04:20:19.629Z,2.20
2017-10-23T04:22:47.071Z,1.93
2017-10-23T04:25:14.520Z,2.37
2017-10-23T04:27:41.959Z,2.30
2017-10-23T04:30:10.167Z,1.53
2017-10-23T04:32:37.615Z,1.93
2017-10-23T04:35:05.076Z,2.40
2017-10-23T04:37:32.515Z,2.90
2017-10-23T04:40:00.721Z,2.17
2017-10-23T04:42:28.183Z,1.80
2017-10-23T04:44:55.635Z,1.90
2017-10-23T04:47:23.090Z,3.53
2017-10-23T04:49:50.527Z,3.80
2017-10-23T04:52:18.005Z,2.40
2017-10-23T04:54:45.439Z,2.40
2017-10-23T04:57:13.655Z,2.20
2017-10-23T04:59:41.112Z,2.40
2017-10-23T05:02:08.560Z,2.43
2017-10-23T05:04:36.049Z,2.20
2017-10-23T05:07:03.467Z,2.47
2017-10-23T05:09:30.942Z,2.60
2017-10-23T05:11:58.383Z,1.93
2017-10-23T05:14:25.819Z,1.90
2017-10-23T05:16:53.266Z,2.40
2017-10-23T05:19:21.497Z,1.90
2017-10-23T05:21:48.951Z,2.10
2017-10-23T05:24:16.399Z,3.30
2017-10-23T05:26:43.854Z,2.57
2017-10-23T05:29:11.302Z,2.50
2017-10-23T05:31:38.794Z,2.10
2017-10-23T05:34:06.370Z,2.23
2017-10-23T05:36:33.800Z,2.50
2017-10-23T05:39:01.251Z,2.40
2017-10-23T05:41:28.695Z,2.97
2017-10-23T05:43:56.155Z,2.60
2017-10-23T05:46:23.603Z,2.27
2017-10-23T05:48:51.060Z,1.87
2017-10-23T05:51:18.488Z,2.50
2017-10-23T05:53:46.728Z,1.90
2017-10-23T05:56:14.172Z,2.27
2017-10-23T05:58:41.611Z,2.40
2017-10-23T06:01:09.075Z,2.07
2017-10-23T06:03:36.519Z,2.40
2017-10-23T06:06:03.972Z,3.00
2017-10-23T06:08:31.416Z,1.37
2017-10-23T06:10:58.890Z,2.37
2017-10-23T06:13:26.333Z,3.37
2017-10-23T06:15:53.776Z,2.60
2017-10-23T06:18:21.223Z,2.37
2017-10-23T06:20:49.440Z,2.30
2017-10-23T06:23:16.896Z,2.33
2017-10-23T06:25:44.344Z,2.90
2017-10-23T06:28:11.827Z,2.10
2017-10-23T06:30:39.281Z,2.00
2017-10-23T06:33:06.735Z,2.90
2017-10-23T06:35:34.180Z,2.60
2017-10-23T06:38:01.624Z,2.10
2017-10-23T06:40:29.064Z,2.00
2017-10-23T06:42:56.511Z,2.67
2017-10-23T06:45:24.726Z,2.10
2017-10-23T06:47:52.178Z,2.97
2017-10-23T06:50:19.639Z,2.10
2017-10-23T06:52:47.072Z,2.10
2017-10-23T06:55:14.524Z,3.00
2017-10-23T06:57:41.972Z,2.70
2017-10-23T07:00:10.196Z,1.80
2017-10-23T07:02:37.653Z,1.83
2017-10-23T07:05:05.097Z,2.20
2017-10-23T07:07:32.528Z,2.20
2017-10-23T07:09:59.977Z,2.40
2017-10-23T07:12:28.183Z,2.00
2017-10-23T07:14:55.639Z,2.03
2017-10-23T07:17:23.076Z,2.30
2017-10-23T07:19:50.526Z,2.90
2017-10-23T07:22:18.744Z,2.47
2017-10-23T07:24:46.188Z,2.57
2017-10-23T07:27:13.635Z,2.70
2017-10-23T07:29:41.108Z,2.77
2017-10-23T07:32:08.567Z,1.97
2017-10-23T07:34:36.017Z,2.80
2017-10-23T07:37:03.468Z,2.87
2017-10-23T07:39:30.900Z,2.50
2017-10-23T07:41:58.355Z,3.03
2017-10-23T07:44:26.561Z,2.43
2017-10-23T07:46:54.017Z,2.23
2017-10-23T07:49:21.463Z,2.87
2017-10-23T07:51:48.915Z,2.93
2017-10-23T07:54:16.363Z,3.50
2017-10-23T07:56:43.812Z,1.97
2017-10-23T07:59:12.022Z,2.90
2017-10-23T08:01:39.489Z,2.80
2017-10-23T08:04:06.939Z,2.70
2017-10-23T08:06:34.399Z,2.80
2017-10-23T08:09:01.853Z,3.90
2017-10-23T08:11:29.291Z,2.47
2017-10-23T08:13:56.730Z,2.80
2017-10-23T08:16:24.943Z,2.17
2017-10-23T08:18:52.391Z,2.00
2017-10-23T08:21:19.839Z,2.17
2017-10-23T08:23:47.277Z,3.00
2017-10-23T08:26:15.489Z,2.27
2017-10-23T08:28:42.943Z,2.40
2017-10-23T08:31:10.367Z,2.03
2017-10-23T08:33:37.817Z,2.03
2017-10-23T08:36:06.016Z,2.20
2017-10-23T08:38:33.483Z,2.50
2017-10-23T08:41:00.911Z,1.47
2017-10-23T08:43:29.127Z,2.00
2017-10-23T08:45:56.571Z,2.30
2017-10-23T08:48:24.036Z,1.97
2017-10-23T08:50:51.459Z,2.07
2017-10-23T08:53:18.910Z,2.10
2017-10-23T08:55:47.108Z,2.30
2017-10-23T08:58:14.573Z,1.57
2017-10-23T09:00:42.007Z,1.97
2017-10-23T09:03:10.223Z,1.50
2017-10-23T09:05:37.661Z,2.10
2017-10-23T09:08:05.101Z,1.47
2017-10-23T09:10:32.539Z,2.13
2017-10-23T09:13:00.760Z,2.23
2017-10-23T09:15:28.204Z,2.90
2017-10-23T09:17:55.634Z,2.07
2017-10-23T09:20:23.852Z,2.00
2017-10-23T09:22:51.300Z,1.73
2017-10-23T09:25:18.755Z,1.53
2017-10-23T09:27:46.182Z,1.80
2017-10-23T09:30:13.639Z,2.00
2017-10-23T09:32:41.847Z,1.57
2017-10-23T09:35:09.306Z,2.17
2017-10-23T09:37:36.735Z,1.73
2017-10-23T09:40:04.185Z,1.97
2017-10-23T09:42:32.403Z,1.80
2017-10-23T09:44:59.859Z,1.90
2017-10-23T09:47:28.063Z,1.70
2017-10-23T09:49:55.512Z,2.00
2017-10-23T09:52:22.959Z,1.97
2017-10-23T09:54:50.427Z,1.73
2017-10-23T09:57:17.871Z,1.70
2017-10-23T09:59:45.328Z,1.80
2017-10-23T10:02:12.778Z,1.60
2017-10-23T10:04:40.226Z,2.10
2017-10-23T10:07:07.695Z,2.47
2017-10-23T10:09:35.123Z,1.80
2017-10-23T10:12:02.592Z,1.63
2017-10-23T10:14:30.026Z,1.23
2017-10-23T10:16:57.472Z,1.50
2017-10-23T10:19:25.676Z,1.70
2017-10-23T10:21:53.130Z,1.73
2017-10-23T10:24:20.560Z,1.23
2017-10-23T10:26:48.773Z,2.17
2017-10-23T10:29:16.207Z,1.90
2017-10-23T10:31:43.667Z,1.60
2017-10-23T10:34:11.103Z,1.37
2017-10-23T10:36:39.331Z,1.50
2017-10-23T10:39:06.762Z,1.47
2017-10-23T10:41:34.214Z,2.03
2017-10-23T10:44:01.660Z,1.73
2017-10-23T10:46:29.863Z,1.90
2017-10-23T10:48:57.310Z,1.70
2017-10-23T10:51:24.758Z,3.57
2017-10-23T10:53:52.200Z,1.93
2017-10-23T10:56:20.433Z,2.43
2017-10-23T10:58:47.895Z,1.50
2017-10-23T11:01:15.346Z,1.80
2017-10-23T11:03:42.799Z,1.93
2017-10-23T11:06:10.250Z,2.33
2017-10-23T11:08:37.703Z,2.67
2017-10-23T11:11:05.149Z,1.97
2017-10-23T11:13:32.600Z,2.00
2017-10-23T11:16:00.031Z,1.77
2017-10-23T11:18:27.478Z,2.43
2017-10-23T11:20:55.695Z,1.67
2017-10-23T11:23:23.151Z,1.90
2017-10-23T11:25:50.608Z,2.20
2017-10-23T11:28:18.067Z,2.03
2017-10-23T11:30:45.522Z,2.20
2017-10-23T11:33:12.959Z,2.40
2017-10-23T11:35:40.399Z,2.83
2017-10-23T11:38:08.615Z,1.90
2017-10-23T11:40:36.063Z,2.20
2017-10-23T11:43:03.535Z,2.40
2017-10-23T11:45:30.985Z,2.10
2017-10-23T11:47:58.415Z,2.20
2017-10-23T11:50:25.868Z,2.47
2017-10-23T11:52:54.137Z,3.93
2017-10-23T11:55:22.356Z,2.43
2017-10-23T11:57:49.802Z,2.80
2017-10-23T12:00:17.253Z,2.20
2017-10-23T12:02:44.684Z,2.83
2017-10-23T12:05:12.898Z,2.70
2017-10-23T12:07:40.353Z,3.47
2017-10-23T12:10:07.810Z,2.80
2017-10-23T12:12:35.242Z,2.47
2017-10-23T12:15:02.700Z,2.30
2017-10-23T12:17:30.136Z,2.57
2017-10-23T12:19:58.348Z,2.50
2017-10-23T12:22:25.783Z,1.80
2017-10-23T12:24:53.235Z,1.97
2017-10-23T12:27:21.434Z,2.70
2017-10-23T12:29:48.892Z,2.60
2017-10-23T12:32:16.323Z,1.90
2017-10-23T12:34:44.571Z,3.00
2017-10-23T12:37:12.025Z,4.80
2017-10-23T12:39:39.471Z,1.93
2017-10-23T12:42:06.918Z,2.40
2017-10-23T12:44:34.363Z,2.23
2017-10-23T12:47:01.822Z,2.10
2017-10-23T12:49:29.265Z,3.00
2017-10-23T12:51:56.857Z,2.30
2017-10-23T12:54:24.295Z,2.63
2017-10-23T12:56:51.747Z,2.17
2017-10-23T12:59:19.200Z,2.30
2017-10-23T13:01:46.678Z,2.27
2017-10-23T13:04:14.087Z,2.00
2017-10-23T13:06:42.303Z,1.53
2017-10-23T13:09:10.506Z,1.90
2017-10-23T13:11:37.951Z,1.30
2017-10-23T13:14:05.402Z,2.00
2017-10-23T13:16:32.856Z,1.87
2017-10-23T13:19:00.302Z,2.50
2017-10-23T13:21:27.765Z,1.87
2017-10-23T13:23:55.208Z,2.00
2017-10-23T13:26:22.647Z,1.73
2017-10-23T13:28:50.091Z,2.37
2017-10-23T13:31:18.310Z,1.77
2017-10-23T13:33:45.763Z,1.70
2017-10-23T13:36:13.210Z,1.87
2017-10-23T13:38:40.668Z,1.73
2017-10-23T13:41:08.092Z,1.50
2017-10-23T13:43:36.335Z,1.90
2017-10-23T13:46:03.771Z,1.80
2017-10-23T13:48:31.231Z,1.63
2017-10-23T13:50:58.668Z,1.83
2017-10-23T13:53:26.124Z,1.43
2017-10-23T13:55:53.559Z,1.93
2017-10-23T13:58:21.012Z,1.63
2017-10-23T14:00:48.456Z,2.00
2017-10-23T14:03:16.674Z,2.20
2017-10-23T14:05:44.114Z,2.17
2017-10-23T14:08:11.567Z,1.77
2017-10-23T14:10:39.002Z,1.63
2017-10-23T14:13:07.220Z,1.63
2017-10-23T14:15:34.668Z,1.60
2017-10-23T14:18:02.103Z,2.00
2017-10-23T14:20:29.560Z,1.57
2017-10-23T14:22:56.992Z,2.00
2017-10-23T14:25:24.435Z,1.57
2017-10-23T14:27:51.880Z,4.20
2017-10-23T14:30:19.335Z,2.43
2017-10-23T14:32:46.876Z,1.60
2017-10-23T14:35:14.331Z,1.33
2017-10-23T14:37:41.786Z,2.20
2017-10-23T14:40:09.249Z,1.30
2017-10-23T14:42:36.683Z,1.63
2017-10-23T14:45:04.140Z,1.77
2017-10-23T14:47:31.579Z,1.70
2017-10-23T14:49:59.803Z,1.90
2017-10-23T14:52:27.241Z,1.60
2017-10-23T14:54:54.699Z,1.63
2017-10-23T14:57:22.151Z,1.70
2017-10-23T14:59:49.594Z,2.17
2017-10-23T15:02:17.097Z,1.93
2017-10-23T15:04:44.535Z,2.73
2017-10-23T15:07:11.984Z,1.60
2017-10-23T15:09:39.467Z,1.30
2017-10-23T15:12:06.924Z,1.60
2017-10-23T15:14:34.377Z,2.20
2017-10-23T15:17:01.827Z,2.20
2017-10-23T15:19:29.273Z,1.57
2017-10-23T15:21:56.735Z,1.43
2017-10-23T15:24:24.158Z,1.83
2017-10-23T15:26:51.619Z,1.93
2017-10-23T15:29:19.063Z,1.70
2017-10-23T15:31:47.279Z,2.20
2017-10-23T15:34:14.776Z,1.67
2017-10-23T15:36:42.251Z,2.17
2017-10-23T15:39:10.479Z,1.70
2017-10-23T15:41:37.941Z,1.83
2017-10-23T15:44:06.156Z,1.80
2017-10-23T15:46:33.598Z,1.50
2017-10-23T15:49:01.043Z,1.70
2017-10-23T15:51:28.495Z,1.90
2017-10-23T15:53:55.939Z,2.23
2017-10-23T15:56:24.151Z,2.13
2017-10-23T15:58:51.601Z,1.80
2017-10-23T16:01:19.036Z,2.47
2017-10-23T16:03:46.509Z,2.90
2017-10-23T16:06:13.953Z,2.10
2017-10-23T16:08:41.408Z,2.27
2017-10-23T16:11:08.851Z,1.70
2017-10-23T16:13:36.301Z,1.80
2017-10-23T16:16:03.718Z,2.10
2017-10-23T16:18:31.948Z,2.00
2017-10-23T16:20:59.398Z,2.00
2017-10-23T16:23:26.835Z,2.10
2017-10-23T16:25:54.275Z,3.57
2017-10-23T16:28:21.754Z,2.20
2017-10-23T16:30:49.191Z,1.50
2017-10-23T16:33:16.643Z,1.87
2017-10-23T16:35:44.087Z,2.30
2017-10-23T16:38:12.322Z,2.40
2017-10-23T16:40:39.759Z,2.53
2017-10-23T16:43:07.235Z,2.57
2017-10-23T16:45:34.683Z,3.40
2017-10-23T16:48:02.123Z,2.00
2017-10-23T16:50:29.572Z,2.30
2017-10-23T16:52:57.016Z,2.37
2017-10-23T16:55:25.245Z,2.33
2017-10-23T16:57:52.698Z,13.33
2017-10-23T17:00:20.164Z,7.10
2017-10-23T17:02:47.626Z,10.23
2017-10-23T17:05:15.089Z,21.10
2017-10-23T17:07:42.530Z,4.80
2017-10-23T17:10:09.987Z,3.73
2017-10-23T17:12:37.447Z,3.40
2017-10-23T17:15:04.899Z,2.77
2017-10-23T17:17:32.491Z,3.00
2017-10-23T17:19:59.945Z,2.50
2017-10-23T17:22:27.379Z,4.40
2017-10-23T17:24:54.846Z,2.87
2017-10-23T17:27:22.291Z,3.80
2017-10-23T17:29:49.762Z,2.93
2017-10-23T17:32:17.206Z,3.03
2017-10-23T17:34:44.656Z,2.63
2017-10-23T17:37:12.098Z,3.70
2017-10-23T17:39:39.551Z,6.17
2017-10-23T17:42:07.012Z,5.03
2017-10-23T17:44:34.457Z,4.73
2017-10-23T17:47:01.928Z,3.87
2017-10-23T17:49:29.372Z,4.30
2017-10-23T17:51:56.802Z,4.03
2017-10-23T17:54:25.017Z,5.07
2017-10-23T17:56:52.471Z,6.50
2017-10-23T17:59:19.942Z,4.47
2017-10-23T18:01:47.397Z,4.50
2017-10-23T18:04:14.850Z,5.40
2017-10-23T18:06:42.310Z,5.00
2017-10-23T18:09:09.764Z,5.93
2017-10-23T18:11:37.231Z,4.37
2017-10-23T18:14:04.673Z,4.90
2017-10-23T18:16:32.130Z,4.97
2017-10-23T18:18:59.580Z,5.67
2017-10-23T18:21:27.051Z,6.80
2017-10-23T18:23:54.500Z,4.50
2017-10-23T18:26:21.945Z,4.80
2017-10-23T18:28:49.394Z,5.10
2017-10-23T18:31:16.835Z,4.97
2017-10-23T18:33:45.069Z,4.00
2017-10-23T18:36:12.519Z,3.77
2017-10-23T18:38:40.731Z,4.27
2017-10-23T18:41:08.953Z,4.70
2017-10-23T18:43:36.420Z,4.63
2017-10-23T18:46:03.854Z,4.13
2017-10-23T18:48:31.359Z,5.10
2017-10-23T18:50:58.808Z,4.90
2017-10-23T18:53:26.267Z,5.57
2017-10-23T18:55:53.702Z,5.40
2017-10-23T18:58:21.159Z,5.33
2017-10-23T19:00:48.606Z,5.00
2017-10-23T19:03:16.055Z,5.17
2017-10-23T19:05:43.503Z,5.60
2017-10-23T19:08:10.981Z,4.70
2017-10-23T19:10:38.438Z,4.90
2017-10-23T19:13:05.884Z,5.27
2017-10-23T19:15:33.339Z,5.33
2017-10-23T19:18:00.779Z,6.77
2017-10-23T19:20:28.995Z,5.57
2017-10-23T19:22:56.441Z,5.80
2017-10-23T19:25:23.893Z,7.40
2017-10-23T19:27:51.338Z,6.63
2017-10-23T19:30:18.809Z,6.30
2017-10-23T19:32:46.246Z,5.90
2017-10-23T19:35:13.695Z,5.00
2017-10-23T19:37:41.903Z,4.97
2017-10-23T19:40:09.363Z,5.87
2017-10-23T19:42:36.818Z,6.37
2017-10-23T19:45:04.270Z,5.17
2017-10-23T19:47:31.715Z,5.60
2017-10-23T19:49:59.168Z,5.80
2017-10-23T19:52:27.361Z,6.03
2017-10-23T19:54:54.819Z,5.77
2017-10-23T19:57:22.267Z,7.07
2017-10-23T19:59:49.729Z,6.90
2017-10-23T20:02:17.171Z,6.67
2017-10-23T20:04:44.611Z,4.70
2017-10-23T20:07:12.832Z,6.00
2017-10-23T20:09:40.291Z,6.27
2017-10-23T20:12:07.749Z,6.20
2017-10-23T20:14:35.191Z,6.00
2017-10-23T20:17:02.655Z,6.77
2017-10-23T20:19:30.111Z,4.93
2017-10-23T20:21:57.566Z,5.00
2017-10-23T20:24:25.016Z,5.40
2017-10-23T20:26:52.474Z,6.17
2017-10-23T20:29:19.902Z,5.73
2017-10-23T20:31:47.360Z,5.70
2017-10-23T20:34:15.579Z,5.97
2017-10-23T20:36:43.034Z,6.00
2017-10-23T20:39:10.485Z,5.50
2017-10-23T20:41:37.939Z,5.13
2017-10-23T20:44:05.408Z,5.43
2017-10-23T20:46:32.855Z,6.10
2017-10-23T20:49:00.315Z,5.70
2017-10-23T20:51:27.755Z,4.70
2017-10-23T20:53:55.204Z,5.30
2017-10-23T20:56:22.647Z,4.70
2017-10-23T20:58:50.891Z,5.57
2017-10-23T21:01:18.331Z,5.30
2017-10-23T21:03:45.780Z,4.37
2017-10-23T21:06:13.231Z,4.87
2017-10-23T21:08:40.671Z,4.73
2017-10-23T21:11:08.270Z,4.83
2017-10-23T21:13:35.723Z,6.30
2017-10-23T21:16:03.171Z,5.93
2017-10-23T21:18:30.625Z,6.50
2017-10-23T21:20:58.083Z,4.83
2017-10-23T21:23:25.530Z,5.10
2017-10-23T21:25:52.992Z,4.50
2017-10-23T21:28:20.446Z,4.63
2017-10-23T21:30:47.899Z,4.27
2017-10-23T21:33:15.371Z,4.23
2017-10-23T21:35:42.817Z,3.90
2017-10-23T21:38:10.265Z,4.60
2017-10-23T21:40:37.699Z,3.80
2017-10-23T21:43:05.150Z,3.90
2017-10-23T21:45:33.361Z,4.73
2017-10-23T21:48:09.534Z,5.10
2017-10-23T21:50:36.978Z,3.90
2017-10-23T21:53:04.431Z,5.10
2017-10-23T21:55:31.893Z,4.30
2017-10-23T21:57:59.339Z,4.27
2017-10-23T22:00:26.802Z,4.53
2017-10-23T22:02:54.239Z,4.23
2017-10-23T22:05:21.692Z,4.30
2017-10-23T22:07:49.158Z,3.60
2017-10-23T22:10:17.372Z,4.03
2017-10-23T22:12:44.823Z,4.03
2017-10-23T22:15:12.268Z,3.00
2017-10-23T22:17:39.727Z,3.53
2017-10-23T22:20:07.178Z,3.30
2017-10-23T22:22:34.634Z,3.43
2017-10-23T22:25:02.064Z,3.70
2017-10-23T22:27:30.279Z,4.60
2017-10-23T22:29:57.726Z,4.00
2017-10-23T22:32:25.192Z,4.60
2017-10-23T22:34:52.641Z,5.70
2017-10-23T22:37:20.094Z,4.80
2017-10-23T22:39:47.543Z,5.57
2017-10-23T22:42:14.993Z,4.87
2017-10-23T22:44:42.432Z,3.80
2017-10-23T22:47:10.636Z,3.80
2017-10-23T22:49:38.100Z,3.70
2017-10-23T22:52:05.541Z,4.20
2017-10-23T22:54:32.995Z,4.10
2017-10-23T22:57:00.437Z,4.10
2017-10-23T22:59:28.671Z,4.10
2017-10-23T23:01:56.104Z,5.10
2017-10-23T23:04:23.556Z,5.10
2017-10-23T23:06:51.020Z,4.27
2017-10-23T23:09:18.487Z,4.10
2017-10-23T23:11:45.994Z,5.53
2017-10-23T23:14:14.204Z,4.47
2017-10-23T23:16:41.656Z,4.63
2017-10-23T23:19:09.098Z,4.30
2017-10-23T23:21:36.561Z,4.67
2017-10-23T23:24:04.007Z,4.43
2017-10-23T23:26:32.245Z,4.47
2017-10-23T23:28:59.681Z,3.77
2017-10-23T23:31:27.120Z,5.30
2017-10-23T23:33:54.565Z,4.63
2017-10-23T23:36:22.004Z,4.47
2017-10-23T23:38:50.229Z,4.70
2017-10-23T23:41:17.659Z,5.03
2017-10-23T23:43:45.110Z,4.90
2017-10-23T23:46:12.544Z,3.70
2017-10-23T23:48:40.785Z,3.00
2017-10-23T23:51:08.235Z,3.33
2017-10-23T23:53:35.700Z,3.23
2017-10-23T23:56:03.150Z,2.60
2017-10-23T23:58:30.595Z,2.13
